createdAt,value
2018-09-03T00:02:27.572Z,25.83
2018-09-03T00:04:55.088Z,25.77
2018-09-03T00:07:22.644Z,28.03
2018-09-03T00:09:50.159Z,26.63
2018-09-03T00:12:17.721Z,31.53
2018-09-03T00:14:45.259Z,34.83
2018-09-03T00:17:12.864Z,28.73
2018-09-03T00:19:40.393Z,29.53
2018-09-03T00:22:07.985Z,26.80
2018-09-03T00:24:35.538Z,35.20
2018-09-03T00:27:03.068Z,32.00
2018-09-03T00:29:30.616Z,29.23
2018-09-03T00:32:03.809Z,32.13
2018-09-03T00:34:36.982Z,33.60
2018-09-03T00:37:10.195Z,29.17
2018-09-03T00:39:43.388Z,32.43
2018-09-03T00:42:16.578Z,31.00
2018-09-03T00:44:49.677Z,30.47
2018-09-03T00:47:17.276Z,27.20
2018-09-03T00:49:44.912Z,34.20
2018-09-03T00:52:12.467Z,28.87
2018-09-03T00:54:40.131Z,27.80
2018-09-03T00:57:08.003Z,33.93
2018-09-03T00:59:35.589Z,28.90
2018-09-03T01:02:03.312Z,25.13
2018-09-03T01:04:30.900Z,24.40
2018-09-03T01:06:58.438Z,27.30
2018-09-03T01:09:26.011Z,31.43
2018-09-03T01:11:53.553Z,30.83
2018-09-03T01:14:21.136Z,38.20
2018-09-03T01:16:48.717Z,27.10
2018-09-03T01:19:16.294Z,35.47
2018-09-03T01:21:43.827Z,36.50
2018-09-03T01:24:11.417Z,27.67
2018-09-03T01:26:39.045Z,26.37
2018-09-03T01:29:06.658Z,30.83
2018-09-03T01:31:34.229Z,32.77
2018-09-03T01:34:01.792Z,30.50
2018-09-03T01:36:29.367Z,28.00
2018-09-03T01:38:56.891Z,27.90
2018-09-03T01:41:24.453Z,28.23
2018-09-03T01:43:52.004Z,29.23
2018-09-03T01:46:19.579Z,33.07
2018-09-03T01:48:47.126Z,27.10
2018-09-03T01:51:14.709Z,32.87
2018-09-03T01:53:42.256Z,25.70
2018-09-03T01:56:10.459Z,29.43
2018-09-03T01:58:38.046Z,25.90
2018-09-03T02:01:05.633Z,28.87
2018-09-03T02:03:33.312Z,32.10
2018-09-03T02:06:00.852Z,28.17
2018-09-03T02:08:28.756Z,34.37
2018-09-03T02:10:56.288Z,33.30
2018-09-03T02:13:23.860Z,26.97
2018-09-03T02:15:51.418Z,26.60
2018-09-03T02:18:18.986Z,27.83
2018-09-03T02:20:46.558Z,32.70
2018-09-03T02:23:14.095Z,32.43
2018-09-03T02:25:41.737Z,32.30
2018-09-03T02:28:09.278Z,27.67
2018-09-03T02:30:36.863Z,31.57
2018-09-03T02:33:04.511Z,37.53
2018-09-03T02:35:32.076Z,32.47
2018-09-03T02:37:59.664Z,30.77
2018-09-03T02:40:27.212Z,35.60
2018-09-03T02:42:54.747Z,33.87
2018-09-03T02:45:22.328Z,36.27
2018-09-03T02:47:49.900Z,34.50
2018-09-03T02:50:17.471Z,37.50
2018-09-03T02:52:45.000Z,37.63
2018-09-03T02:55:12.565Z,31.87
2018-09-03T02:57:40.317Z,39.33
2018-09-03T03:00:07.945Z,52.50
2018-09-03T03:02:35.492Z,43.07
2018-09-03T03:05:03.067Z,44.73
2018-09-03T03:07:30.648Z,40.93
2018-09-03T03:09:58.242Z,41.33
2018-09-03T03:12:25.832Z,47.57
2018-09-03T03:14:56.364Z,41.57
2018-09-03T03:17:24.064Z,40.70
2018-09-03T03:19:51.652Z,35.10
2018-09-03T03:22:19.736Z,36.97
2018-09-03T03:24:47.362Z,40.80
2018-09-03T03:27:15.486Z,36.00
2018-09-03T03:29:43.111Z,37.73
2018-09-03T03:32:10.794Z,35.40
2018-09-03T03:34:38.362Z,45.87
2018-09-03T03:37:06.137Z,33.97
2018-09-03T03:39:33.700Z,38.93
2018-09-03T03:42:01.301Z,41.93
2018-09-03T03:44:28.866Z,43.80
2018-09-03T03:46:56.472Z,38.20
2018-09-03T03:49:24.046Z,41.07
2018-09-03T03:51:51.776Z,42.73
2018-09-03T03:54:19.335Z,43.83
2018-09-03T03:56:46.898Z,43.37
2018-09-03T03:59:14.437Z,44.03
2018-09-03T04:01:41.990Z,41.93
2018-09-03T04:04:09.609Z,43.03
2018-09-03T04:06:37.140Z,39.37
2018-09-03T04:09:06.852Z,41.20
2018-09-03T04:11:34.379Z,42.20
2018-09-03T04:14:01.963Z,33.80
2018-09-03T04:16:29.591Z,36.97
2018-09-03T04:18:57.205Z,48.40
2018-09-03T04:21:25.075Z,43.00
2018-09-03T04:23:52.694Z,43.93
2018-09-03T04:26:20.239Z,42.67
2018-09-03T04:28:47.799Z,31.93
2018-09-03T04:31:15.346Z,39.33
2018-09-03T04:33:42.923Z,38.90
2018-09-03T04:36:10.604Z,28.80
2018-09-03T04:38:38.194Z,35.30
2018-09-03T04:41:05.757Z,48.20
2018-09-03T04:43:33.298Z,39.87
2018-09-03T04:46:00.896Z,35.33
2018-09-03T04:48:28.442Z,38.57
2018-09-03T04:50:56.061Z,37.57
2018-09-03T04:53:23.609Z,50.23
2018-09-03T04:55:51.402Z,41.67
2018-09-03T04:58:18.987Z,48.00
2018-09-03T05:00:46.672Z,45.83
2018-09-03T05:03:14.269Z,40.43
2018-09-03T05:05:41.853Z,44.37
2018-09-03T05:08:09.422Z,44.60
2018-09-03T05:10:37.011Z,42.97
2018-09-03T05:13:04.611Z,44.93
2018-09-03T05:15:32.271Z,40.20
2018-09-03T05:18:00.237Z,45.67
2018-09-03T05:20:27.974Z,44.53
2018-09-03T05:22:56.168Z,43.37
2018-09-03T05:25:23.844Z,37.17
2018-09-03T05:27:51.351Z,36.33
2018-09-03T05:30:18.913Z,42.43
2018-09-03T05:32:46.427Z,38.37
2018-09-03T05:35:14.289Z,34.57
2018-09-03T05:37:41.991Z,30.03
2018-09-03T05:40:09.745Z,37.53
2018-09-03T05:42:37.293Z,35.50
2018-09-03T05:45:05.006Z,29.67
2018-09-03T05:47:32.578Z,35.77
2018-09-03T05:50:00.173Z,39.20
2018-09-03T05:52:27.855Z,37.33
2018-09-03T05:54:55.386Z,34.67
2018-09-03T05:57:22.960Z,37.07
2018-09-03T05:59:50.540Z,40.83
2018-09-03T06:02:18.162Z,38.07
2018-09-03T06:04:45.674Z,39.27
2018-09-03T06:07:13.238Z,39.50
2018-09-03T06:09:40.737Z,44.13
2018-09-03T06:12:08.305Z,33.23
2018-09-03T06:14:35.826Z,38.27
2018-09-03T06:17:03.487Z,43.27
2018-09-03T06:19:31.016Z,44.10
2018-09-03T06:21:58.793Z,34.17
2018-09-03T06:24:26.349Z,38.90
2018-09-03T06:26:53.976Z,38.87
2018-09-03T06:29:21.512Z,43.03
2018-09-03T06:31:49.174Z,43.03
2018-09-03T06:34:16.713Z,45.90
2018-09-03T06:36:44.313Z,42.83
2018-09-03T06:39:12.025Z,42.87
2018-09-03T06:41:39.624Z,39.03
2018-09-03T06:44:07.181Z,43.47
2018-09-03T06:46:34.697Z,44.90
2018-09-03T06:49:02.278Z,41.03
2018-09-03T06:51:29.850Z,41.33
2018-09-03T06:53:57.587Z,50.10
2018-09-03T06:56:25.338Z,39.60
2018-09-03T06:58:52.919Z,41.60
2018-09-03T07:01:20.529Z,33.53
2018-09-03T07:03:48.176Z,48.43
2018-09-03T07:06:15.780Z,45.53
2018-09-03T07:08:43.589Z,39.37
2018-09-03T07:11:11.912Z,40.17
2018-09-03T07:13:39.764Z,38.43
2018-09-03T07:16:07.332Z,48.17
2018-09-03T07:18:34.972Z,39.70
2018-09-03T07:21:02.545Z,42.87
2018-09-03T07:23:30.111Z,42.47
2018-09-03T07:25:57.775Z,38.50
2018-09-03T07:28:25.396Z,37.13
2018-09-03T07:30:52.924Z,42.00
2018-09-03T07:33:20.735Z,34.53
2018-09-03T07:35:48.548Z,35.50
2018-09-03T07:38:16.090Z,31.37
2018-09-03T07:40:43.691Z,38.00
2018-09-03T07:43:11.396Z,33.43
2018-09-03T07:45:39.174Z,34.57
2018-09-03T07:48:06.857Z,31.20
2018-09-03T07:50:34.455Z,31.37
2018-09-03T07:53:02.029Z,32.90
2018-09-03T07:55:29.649Z,33.67
2018-09-03T07:57:57.203Z,38.30
2018-09-03T08:00:24.858Z,30.40
2018-09-03T08:02:52.516Z,30.03
2018-09-03T08:05:20.061Z,26.57
2018-09-03T08:07:47.591Z,32.00
2018-09-03T08:10:15.391Z,34.03
2018-09-03T08:12:42.993Z,30.90
2018-09-03T08:15:10.573Z,25.33
2018-09-03T08:17:38.170Z,29.53
2018-09-03T08:20:05.922Z,30.73
2018-09-03T08:22:33.455Z,29.25
2018-09-03T08:25:01.065Z,30.45
2018-09-03T08:27:28.676Z,32.17
2018-09-03T08:29:56.376Z,26.20
2018-09-03T08:32:23.963Z,22.13
2018-09-03T08:34:51.614Z,19.70
2018-09-03T08:37:19.174Z,23.63
2018-09-03T08:39:46.878Z,21.50
2018-09-03T08:42:14.681Z,23.73
2018-09-03T08:44:42.351Z,25.87
2018-09-03T08:47:09.868Z,20.90
2018-09-03T08:49:37.402Z,25.97
2018-09-03T08:52:05.358Z,25.90
2018-09-03T08:54:32.944Z,23.17
2018-09-03T08:57:00.520Z,27.23
2018-09-03T08:59:28.101Z,19.83
2018-09-03T09:01:55.674Z,26.80
2018-09-03T09:04:23.227Z,28.03
2018-09-03T09:06:50.799Z,26.07
2018-09-03T09:09:18.367Z,24.77
2018-09-03T09:11:46.103Z,27.70
2018-09-03T09:14:13.647Z,27.27
2018-09-03T09:16:41.220Z,27.47
2018-09-03T09:19:08.900Z,29.97
2018-09-03T09:21:36.460Z,26.10
2018-09-03T09:24:04.149Z,23.30
2018-09-03T09:26:31.792Z,30.30
2018-09-03T09:28:59.412Z,25.27
2018-09-03T09:31:27.008Z,28.53
2018-09-03T09:33:54.779Z,26.70
2018-09-03T09:36:22.390Z,27.50
2018-09-03T09:38:49.930Z,21.93
2018-09-03T09:41:17.668Z,23.80
2018-09-03T09:43:45.172Z,21.87
2018-09-03T09:46:12.704Z,20.93
2018-09-03T09:48:40.254Z,18.17
2018-09-03T09:51:07.864Z,20.67
2018-09-03T09:53:35.444Z,24.27
2018-09-03T09:56:03.034Z,24.20
2018-09-03T09:58:30.671Z,25.60
2018-09-03T10:01:03.814Z,23.73
2018-09-03T10:03:31.535Z,28.93
2018-09-03T10:05:59.109Z,23.00
2018-09-03T10:08:26.663Z,22.50
2018-09-03T10:10:54.211Z,22.00
2018-09-03T10:13:21.772Z,25.03
2018-09-03T10:15:49.358Z,27.03
2018-09-03T10:18:16.909Z,23.53
2018-09-03T10:20:44.454Z,29.27
2018-09-03T10:23:12.039Z,27.17
2018-09-03T10:25:39.611Z,24.43
2018-09-03T10:28:07.125Z,36.97
2018-09-03T10:30:34.773Z,31.47
2018-09-03T10:33:03.508Z,27.90
2018-09-03T10:35:31.241Z,30.20
2018-09-03T10:37:58.811Z,31.37
2018-09-03T10:40:26.580Z,29.00
2018-09-03T10:42:55.373Z,31.07
2018-09-03T10:45:22.919Z,33.20
2018-09-03T10:47:50.811Z,33.87
2018-09-03T10:50:18.461Z,29.10
2018-09-03T10:52:46.205Z,31.50
2018-09-03T10:55:13.883Z,24.10
2018-09-03T10:57:41.463Z,29.10
2018-09-03T11:00:09.005Z,30.87
2018-09-03T11:02:36.516Z,28.97
2018-09-03T11:05:04.083Z,28.80
2018-09-03T11:07:31.599Z,28.07
2018-09-03T11:09:59.150Z,34.13
2018-09-03T11:12:26.678Z,28.33
2018-09-03T11:14:54.211Z,34.60
2018-09-03T11:17:21.738Z,31.97
2018-09-03T11:19:54.736Z,30.00
2018-09-03T11:22:22.565Z,29.80
2018-09-03T11:24:50.044Z,29.47
2018-09-03T11:27:17.599Z,32.00
2018-09-03T11:29:45.174Z,29.67
2018-09-03T11:32:12.713Z,31.67
2018-09-03T11:34:40.305Z,36.93
2018-09-03T11:37:07.981Z,40.00
2018-09-03T11:39:35.584Z,33.60
2018-09-03T11:42:03.228Z,32.70
2018-09-03T11:44:30.755Z,39.33
2018-09-03T11:46:58.297Z,31.47
2018-09-03T11:49:25.928Z,31.27
2018-09-03T11:51:53.463Z,30.73
2018-09-03T11:54:21.082Z,28.00
2018-09-03T11:56:48.591Z,26.83
2018-09-03T11:59:16.168Z,29.63
2018-09-03T12:01:43.720Z,28.03
2018-09-03T12:04:11.266Z,30.53
2018-09-03T12:06:38.802Z,30.00
2018-09-03T12:09:08.049Z,29.40
2018-09-03T12:11:35.571Z,23.43
2018-09-03T12:14:08.001Z,22.63
2018-09-03T12:16:35.631Z,21.00
2018-09-03T12:19:03.329Z,20.13
2018-09-03T12:21:30.867Z,21.17
2018-09-03T12:23:58.396Z,23.57
2018-09-03T12:26:26.065Z,23.10
2018-09-03T12:28:53.632Z,23.60
2018-09-03T12:31:21.360Z,20.33
2018-09-03T12:33:49.122Z,19.03
2018-09-03T12:36:16.848Z,22.03
2018-09-03T12:38:44.360Z,18.63
2018-09-03T12:41:12.282Z,18.77
2018-09-03T12:43:40.027Z,21.50
2018-09-03T12:46:08.314Z,13.70
2018-09-03T12:48:35.958Z,13.33
2018-09-03T12:51:04.359Z,12.07
2018-09-03T12:53:32.523Z,11.80
2018-09-03T12:56:00.576Z,11.00
2018-09-03T12:58:28.395Z,11.70
2018-09-03T13:00:55.993Z,12.20
2018-09-03T13:03:23.547Z,12.70
2018-09-03T13:05:51.152Z,23.77
2018-09-03T13:08:18.819Z,17.27
2018-09-03T13:10:46.456Z,15.10
2018-09-03T13:13:14.056Z,19.77
2018-09-03T13:15:41.841Z,20.30
2018-09-03T13:18:09.780Z,15.13
2018-09-03T13:20:37.407Z,15.33
2018-09-03T13:23:05.321Z,14.33
2018-09-03T13:25:33.159Z,15.97
2018-09-03T13:28:00.796Z,13.17
2018-09-03T13:30:28.380Z,13.10
2018-09-03T13:32:56.139Z,11.53
2018-09-03T13:35:24.021Z,14.90
2018-09-03T13:37:51.696Z,18.30
2018-09-03T13:40:19.525Z,13.13
2018-09-03T13:42:47.110Z,12.17
2018-09-03T13:45:14.744Z,11.97
2018-09-03T13:47:42.289Z,12.23
2018-09-03T13:50:10.055Z,10.57
2018-09-03T13:52:37.824Z,11.40
2018-09-03T13:55:05.545Z,9.97
2018-09-03T13:57:33.168Z,14.40
2018-09-03T14:00:00.803Z,11.50
2018-09-03T14:02:28.632Z,16.23
2018-09-03T14:04:56.289Z,9.50
2018-09-03T14:07:23.816Z,9.47
2018-09-03T14:09:51.521Z,7.47
2018-09-03T14:12:19.360Z,7.63
2018-09-03T14:14:47.941Z,8.40
2018-09-03T14:17:15.658Z,8.63
2018-09-03T14:19:43.295Z,8.50
2018-09-03T14:22:10.958Z,6.77
2018-09-03T14:24:38.497Z,7.23
2018-09-03T14:27:06.163Z,7.30
2018-09-03T14:29:33.724Z,5.47
2018-09-03T14:32:01.268Z,5.53
2018-09-03T14:34:28.805Z,11.73
2018-09-03T14:36:56.400Z,7.30
2018-09-03T14:39:23.915Z,8.00
2018-09-03T14:41:51.451Z,7.30
2018-09-03T14:44:18.964Z,6.87
2018-09-03T14:46:46.750Z,6.93
2018-09-03T14:49:14.325Z,5.73
2018-09-03T14:51:41.984Z,48.07
2018-09-03T14:54:09.578Z,6.67
2018-09-03T14:56:37.248Z,8.23
2018-09-03T14:59:07.155Z,13.93
2018-09-03T15:01:34.755Z,7.87
2018-09-03T15:04:02.449Z,9.17
2018-09-03T15:06:30.140Z,8.90
2018-09-03T15:08:58.970Z,8.07
2018-09-03T15:11:26.875Z,8.00
2018-09-03T15:13:58.095Z,7.97
2018-09-03T15:16:27.492Z,7.80
2018-09-03T15:18:55.055Z,9.53
2018-09-03T15:21:22.632Z,7.00
2018-09-03T15:23:50.211Z,9.33
2018-09-03T15:26:17.838Z,7.97
2018-09-03T15:28:45.313Z,8.57
2018-09-03T15:31:12.927Z,7.37
2018-09-03T15:33:40.596Z,8.10
2018-09-03T15:36:10.358Z,11.83
2018-09-03T15:38:37.891Z,7.10
2018-09-03T15:41:06.072Z,25.90
2018-09-03T15:43:33.963Z,12.60
2018-09-03T15:46:01.550Z,8.23
2018-09-03T15:48:29.437Z,7.63
2018-09-03T15:50:57.273Z,8.00
2018-09-03T15:53:25.661Z,6.30
2018-09-03T15:55:53.473Z,4.63
2018-09-03T15:58:21.109Z,9.50
2018-09-03T16:00:48.735Z,7.73
2018-09-03T16:03:16.529Z,6.63
2018-09-03T16:05:44.335Z,9.47
2018-09-03T16:08:11.976Z,8.07
2018-09-03T16:10:39.955Z,7.87
2018-09-03T16:13:07.581Z,8.40
2018-09-03T16:15:35.176Z,10.13
2018-09-03T16:18:02.896Z,7.87
2018-09-03T16:20:30.603Z,8.30
2018-09-03T16:22:58.339Z,7.10
2018-09-03T16:25:26.025Z,11.73
2018-09-03T16:27:53.683Z,8.23
2018-09-03T16:30:21.184Z,8.93
2018-09-03T16:32:48.762Z,8.70
2018-09-03T16:35:16.340Z,7.80
2018-09-03T16:37:44.014Z,6.77
2018-09-03T16:40:11.632Z,7.27
2018-09-03T16:42:39.206Z,10.00
2018-09-03T16:45:06.849Z,7.70
2018-09-03T16:47:34.431Z,10.70
2018-09-03T16:50:02.082Z,8.57
2018-09-03T16:52:29.657Z,9.00
2018-09-03T16:54:57.216Z,7.83
2018-09-03T16:57:24.802Z,9.33
2018-09-03T16:59:52.384Z,7.90
2018-09-03T17:02:19.931Z,16.00
2018-09-03T17:04:47.498Z,9.13
2018-09-03T17:07:15.099Z,9.50
2018-09-03T17:09:42.685Z,9.73
2018-09-03T17:12:10.365Z,7.63
2018-09-03T17:14:37.946Z,7.70
2018-09-03T17:17:05.892Z,9.13
2018-09-03T17:19:33.485Z,10.20
2018-09-03T17:22:01.036Z,7.33
2018-09-03T17:24:28.656Z,24.30
2018-09-03T17:26:56.204Z,12.07
2018-09-03T17:29:23.855Z,17.33
2018-09-03T17:31:51.417Z,10.70
2018-09-03T17:34:18.979Z,11.60
2018-09-03T17:36:46.502Z,12.30
2018-09-03T17:39:14.089Z,12.23
2018-09-03T17:41:41.633Z,10.37
2018-09-03T17:44:09.230Z,18.60
2018-09-03T17:46:36.840Z,12.83
2018-09-03T17:49:04.386Z,12.37
2018-09-03T17:51:32.012Z,11.33
2018-09-03T17:53:59.577Z,12.30
2018-09-03T17:56:27.120Z,13.70
2018-09-03T17:58:54.751Z,13.70
2018-09-03T18:01:22.387Z,15.47
2018-09-03T18:03:50.051Z,12.47
2018-09-03T18:06:17.669Z,13.43
2018-09-03T18:08:45.263Z,11.93
2018-09-03T18:11:12.895Z,11.00
2018-09-03T18:13:40.478Z,12.27
2018-09-03T18:16:08.301Z,13.67
2018-09-03T18:18:35.844Z,12.70
2018-09-03T18:21:03.670Z,12.53
2018-09-03T18:23:31.361Z,13.10
2018-09-03T18:25:59.256Z,15.83
2018-09-03T18:28:27.186Z,13.60
2018-09-03T18:30:54.937Z,14.90
2018-09-03T18:33:22.608Z,15.53
2018-09-03T18:35:50.427Z,15.07
2018-09-03T18:38:18.130Z,14.47
2018-09-03T18:40:45.728Z,14.20
2018-09-03T18:43:13.282Z,11.83
2018-09-03T18:45:41.257Z,14.23
2018-09-03T18:48:08.959Z,16.00
2018-09-03T18:50:36.734Z,11.63
2018-09-03T18:53:05.369Z,13.57
2018-09-03T18:55:33.071Z,14.97
2018-09-03T18:58:00.640Z,14.63
2018-09-03T19:00:28.703Z,15.90
2018-09-03T19:02:56.735Z,13.40
2018-09-03T19:05:24.397Z,13.90
2018-09-03T19:07:52.573Z,17.30
2018-09-03T19:10:20.656Z,16.10
2018-09-03T19:12:48.614Z,19.43
2018-09-03T19:15:16.684Z,16.20
2018-09-03T19:17:44.394Z,16.70
2018-09-03T19:20:12.290Z,17.57
2018-09-03T19:22:40.337Z,16.23
2018-09-03T19:25:08.023Z,19.23
2018-09-03T19:27:36.127Z,17.50
2018-09-03T19:30:03.937Z,16.37
2018-09-03T19:32:31.762Z,17.80
2018-09-03T19:34:59.415Z,20.37
2018-09-03T19:37:26.963Z,17.23
2018-09-03T19:39:54.610Z,16.10
2018-09-03T19:42:22.224Z,16.50
2018-09-03T19:44:49.938Z,19.20
2018-09-03T19:47:17.752Z,15.83
2018-09-03T19:49:45.500Z,17.07
2018-09-03T19:52:13.171Z,17.40
2018-09-03T19:54:40.769Z,14.50
2018-09-03T19:57:08.333Z,16.70
2018-09-03T19:59:36.248Z,30.00
2018-09-03T20:02:03.850Z,17.53
2018-09-03T20:04:31.665Z,22.07
2018-09-03T20:06:59.315Z,17.07
2018-09-03T20:09:26.958Z,20.07
2018-09-03T20:11:54.808Z,17.73
2018-09-03T20:14:22.696Z,16.50
2018-09-03T20:16:50.381Z,19.00
2018-09-03T20:19:17.967Z,15.53
2018-09-03T20:21:45.524Z,17.73
2018-09-03T20:24:13.131Z,21.57
2018-09-03T20:26:41.144Z,15.40
2018-09-03T20:29:08.789Z,16.67
2018-09-03T20:31:36.440Z,18.93
2018-09-03T20:34:04.113Z,16.23
2018-09-03T20:36:31.657Z,24.53
2018-09-03T20:38:59.329Z,24.50
2018-09-03T20:41:27.125Z,30.17
2018-09-03T20:43:54.669Z,17.77
2018-09-03T20:46:22.347Z,14.47
2018-09-03T20:48:50.013Z,18.03
2018-09-03T20:51:17.623Z,22.23
2018-09-03T20:53:45.175Z,16.80
2018-09-03T20:56:12.764Z,17.83
2018-09-03T20:58:40.375Z,17.93
2018-09-03T21:01:07.993Z,14.97
2018-09-03T21:03:35.563Z,19.27
2018-09-03T21:06:03.153Z,16.70
2018-09-03T21:08:30.807Z,15.77
2018-09-03T21:10:58.625Z,18.10
2018-09-03T21:13:26.618Z,17.00
2018-09-03T21:15:54.263Z,14.80
2018-09-03T21:18:21.895Z,17.00
2018-09-03T21:20:49.438Z,17.67
2018-09-03T21:23:16.972Z,22.37
2018-09-03T21:25:44.594Z,21.97
2018-09-03T21:28:12.167Z,17.80
2018-09-03T21:30:39.745Z,17.83
2018-09-03T21:33:07.297Z,18.23
2018-09-03T21:35:34.858Z,18.40
2018-09-03T21:38:02.533Z,17.53
2018-09-03T21:40:30.158Z,18.10
2018-09-03T21:42:57.751Z,18.23
2018-09-03T21:45:25.337Z,15.97
2018-09-03T21:47:52.888Z,16.33
2018-09-03T21:50:20.523Z,15.93
2018-09-03T21:52:48.133Z,21.70
2018-09-03T21:55:15.721Z,20.47
2018-09-03T21:57:43.246Z,19.00
2018-09-03T22:00:11.254Z,21.33
2018-09-03T22:02:38.864Z,17.17
2018-09-03T22:05:06.527Z,17.93
2018-09-03T22:07:34.543Z,17.70
2018-09-03T22:10:02.233Z,22.40
2018-09-03T22:12:29.830Z,23.23
2018-09-03T22:14:57.412Z,20.53
2018-09-03T22:17:24.943Z,22.63
2018-09-03T22:19:52.520Z,23.30
2018-09-03T22:22:20.085Z,22.77
2018-09-03T22:24:47.683Z,19.00
2018-09-03T22:27:15.208Z,22.30
2018-09-03T22:29:42.855Z,18.57
2018-09-03T22:32:10.444Z,22.33
2018-09-03T22:34:38.000Z,22.57
2018-09-03T22:37:05.570Z,22.73
2018-09-03T22:39:33.124Z,20.37
2018-09-03T22:42:00.700Z,20.83
2018-09-03T22:44:28.247Z,19.87
2018-09-03T22:46:55.823Z,16.87
2018-09-03T22:49:23.451Z,16.77
2018-09-03T22:51:52.152Z,16.90
2018-09-03T22:54:19.819Z,20.63
2018-09-03T22:56:47.487Z,19.90
2018-09-03T22:59:14.993Z,21.73
2018-09-03T23:01:42.551Z,22.00
2018-09-03T23:04:10.264Z,22.70
2018-09-03T23:06:37.878Z,20.10
2018-09-03T23:09:06.421Z,21.80
2018-09-03T23:11:34.152Z,18.83
2018-09-03T23:14:01.946Z,25.43
2018-09-03T23:16:29.718Z,19.47
2018-09-03T23:18:57.265Z,20.67
2018-09-03T23:21:25.007Z,21.00
2018-09-03T23:23:52.533Z,16.67
2018-09-03T23:26:20.095Z,19.10
2018-09-03T23:28:47.634Z,22.10
2018-09-03T23:31:15.184Z,20.00
2018-09-03T23:33:42.721Z,19.10
2018-09-03T23:36:10.305Z,19.37
2018-09-03T23:38:37.896Z,15.03
2018-09-03T23:41:05.467Z,19.87
2018-09-03T23:43:33.101Z,17.70
2018-09-03T23:46:00.675Z,16.10
2018-09-03T23:48:28.326Z,17.23
2018-09-03T23:50:55.974Z,23.83
2018-09-03T23:53:23.595Z,19.53
2018-09-03T23:55:51.195Z,19.97
2018-09-03T23:58:18.736Z,20.00
